createdAt,value
2017-07-25T00:01:45.890Z,16.10
2017-07-25T00:04:13.519Z,16.10
2017-07-25T00:06:41.828Z,16.00
2017-07-25T00:15:14.317Z,15.90
2017-07-25T00:17:41.855Z,16.00
2017-07-25T00:20:09.407Z,15.90
2017-07-25T00:22:37.121Z,15.90
2017-07-25T00:25:04.668Z,15.90
2017-07-25T00:27:32.970Z,15.90
2017-07-25T00:30:00.776Z,15.90
2017-07-25T00:32:28.318Z,15.90
2017-07-25T00:34:55.868Z,15.90
2017-07-25T00:37:23.589Z,15.90
2017-07-25T00:39:51.896Z,15.90
2017-07-25T00:42:19.446Z,15.90
2017-07-25T00:44:47.112Z,15.80
2017-07-25T00:47:14.656Z,15.80
2017-07-25T00:49:42.204Z,15.90
2017-07-25T00:52:10.691Z,15.80
2017-07-25T00:54:39.014Z,15.80
2017-07-25T00:57:06.563Z,15.80
2017-07-25T00:59:34.280Z,15.80
2017-07-25T01:02:02.602Z,15.80
2017-07-25T01:04:30.150Z,15.80
2017-07-25T01:06:57.753Z,15.90
2017-07-25T01:09:25.298Z,15.90
2017-07-25T01:11:52.867Z,15.80
2017-07-25T01:14:20.609Z,15.90
2017-07-25T01:16:48.159Z,15.90
2017-07-25T01:19:15.720Z,15.90
2017-07-25T01:21:43.473Z,15.90
2017-07-25T01:24:11.018Z,15.90
2017-07-25T01:26:38.603Z,16.00
2017-07-25T01:29:06.332Z,16.00
2017-07-25T01:31:33.889Z,15.90
2017-07-25T01:34:02.205Z,16.00
2017-07-25T01:36:29.791Z,16.00
2017-07-25T01:38:57.343Z,16.00
2017-07-25T01:41:24.898Z,16.10
2017-07-25T01:43:52.507Z,16.10
2017-07-25T01:46:20.058Z,16.00
2017-07-25T01:48:48.370Z,16.10
2017-07-25T01:51:16.107Z,16.10
2017-07-25T01:53:43.661Z,16.10
2017-07-25T01:56:11.972Z,16.00
2017-07-25T01:58:39.571Z,16.00
2017-07-25T02:01:07.120Z,16.10
2017-07-25T02:03:34.702Z,16.00
2017-07-25T02:06:03.355Z,16.00
2017-07-25T02:08:30.913Z,16.00
2017-07-25T02:10:58.467Z,16.10
2017-07-25T02:13:26.196Z,16.10
2017-07-25T02:15:53.754Z,16.10
2017-07-25T02:18:21.299Z,16.10
2017-07-25T02:20:49.808Z,16.10
2017-07-25T02:23:17.391Z,16.10
2017-07-25T02:25:44.942Z,16.10
2017-07-25T02:28:12.672Z,16.20
2017-07-25T02:30:40.219Z,16.20
2017-07-25T02:33:08.543Z,16.30
2017-07-25T02:35:36.286Z,16.30
2017-07-25T02:38:03.845Z,16.30
2017-07-25T02:40:31.404Z,16.30
2017-07-25T02:42:59.018Z,16.30
2017-07-25T02:45:26.567Z,16.30
2017-07-25T02:47:54.114Z,16.30
2017-07-25T02:50:21.843Z,16.20
2017-07-25T02:52:49.401Z,16.30
2017-07-25T02:55:16.955Z,16.30
2017-07-25T02:57:44.640Z,16.30
2017-07-25T03:00:12.203Z,16.30
2017-07-25T03:02:39.762Z,16.30
2017-07-25T03:05:07.754Z,16.30
2017-07-25T03:07:35.315Z,16.30
2017-07-25T03:10:02.863Z,16.30
2017-07-25T03:12:30.736Z,16.30
2017-07-25T03:14:58.355Z,16.30
2017-07-25T03:17:25.909Z,16.20
2017-07-25T03:19:53.591Z,16.20
2017-07-25T03:22:21.140Z,16.20
2017-07-25T03:24:48.695Z,16.30
2017-07-25T03:27:16.318Z,16.30
2017-07-25T03:29:44.635Z,16.20
2017-07-25T03:32:12.190Z,16.30
2017-07-25T03:34:39.907Z,16.30
2017-07-25T03:37:07.479Z,16.30
2017-07-25T03:39:35.797Z,16.40
2017-07-25T03:42:03.538Z,16.30
2017-07-25T03:44:31.093Z,16.30
2017-07-25T03:46:58.650Z,16.40
2017-07-25T03:49:27.280Z,16.40
2017-07-25T03:51:54.842Z,16.40
2017-07-25T03:54:22.415Z,16.40
2017-07-25T03:56:50.088Z,16.30
2017-07-25T03:59:17.646Z,16.30
2017-07-25T04:01:45.220Z,16.30
2017-07-25T04:04:13.703Z,16.30
2017-07-25T04:06:42.044Z,16.30
2017-07-25T04:09:09.601Z,16.30
2017-07-25T04:11:37.578Z,16.30
2017-07-25T04:14:05.127Z,16.30
2017-07-25T04:16:32.674Z,16.30
2017-07-25T04:19:00.423Z,16.40
2017-07-25T04:21:27.973Z,16.30
2017-07-25T04:23:55.531Z,16.40
2017-07-25T04:26:23.455Z,16.40
2017-07-25T04:28:51.006Z,16.30
2017-07-25T04:31:18.564Z,16.30
2017-07-25T04:33:46.326Z,16.30
2017-07-25T04:36:13.887Z,16.20
2017-07-25T04:38:41.442Z,16.30
2017-07-25T04:41:09.162Z,16.30
2017-07-25T04:43:36.715Z,16.30
2017-07-25T04:46:04.330Z,16.30
2017-07-25T04:48:31.953Z,16.30
2017-07-25T04:50:59.509Z,16.30
2017-07-25T04:53:27.058Z,16.30
2017-07-25T04:55:54.663Z,16.30
2017-07-25T04:58:22.207Z,16.30
2017-07-25T05:00:49.755Z,16.30
2017-07-25T05:03:17.355Z,16.30
2017-07-25T05:05:44.909Z,16.20
2017-07-25T05:08:12.460Z,16.20
2017-07-25T05:10:40.037Z,16.20
2017-07-25T05:13:07.587Z,16.20
2017-07-25T05:15:35.127Z,16.20
2017-07-25T05:18:05.787Z,16.20
2017-07-25T05:20:33.355Z,16.20
2017-07-25T05:23:01.671Z,16.20
2017-07-25T05:25:29.757Z,16.30
2017-07-25T05:27:57.307Z,16.30
2017-07-25T05:30:24.854Z,16.30
2017-07-25T05:32:52.574Z,16.40
2017-07-25T05:35:20.130Z,16.30
2017-07-25T05:37:47.691Z,16.30
2017-07-25T05:40:15.263Z,16.30
2017-07-25T05:42:43.586Z,16.30
2017-07-25T05:45:11.150Z,16.30
2017-07-25T05:47:39.051Z,16.30
2017-07-25T05:50:06.612Z,16.30
2017-07-25T05:52:34.177Z,16.30
2017-07-25T05:55:02.048Z,16.30
2017-07-25T05:57:29.601Z,16.30
2017-07-25T05:59:57.155Z,16.30
2017-07-25T06:02:24.852Z,16.30
2017-07-25T06:04:52.409Z,16.30
2017-07-25T06:07:19.967Z,16.40
2017-07-25T06:09:48.720Z,16.50
2017-07-25T06:12:16.267Z,16.50
2017-07-25T06:14:43.815Z,16.50
2017-07-25T06:17:11.711Z,16.50
2017-07-25T06:19:39.268Z,16.50
2017-07-25T06:22:06.814Z,16.50
2017-07-25T06:24:34.488Z,16.50
2017-07-25T06:27:02.048Z,16.50
2017-07-25T06:29:29.606Z,16.60
2017-07-25T06:31:57.331Z,16.70
2017-07-25T06:34:24.895Z,16.70
2017-07-25T06:36:52.457Z,16.70
2017-07-25T06:39:20.115Z,16.70
2017-07-25T06:41:47.706Z,16.80
2017-07-25T06:44:15.259Z,16.80
2017-07-25T06:46:42.873Z,16.90
2017-07-25T06:49:10.424Z,16.80
2017-07-25T06:51:37.981Z,16.80
2017-07-25T06:54:05.703Z,16.80
2017-07-25T06:56:33.261Z,16.80
2017-07-25T06:59:00.833Z,16.80
2017-07-25T07:01:28.486Z,16.80
2017-07-25T07:03:56.044Z,16.90
2017-07-25T07:06:23.602Z,16.90
2017-07-25T07:08:51.304Z,16.90
2017-07-25T07:11:18.859Z,17.00
2017-07-25T07:13:46.411Z,17.00
2017-07-25T07:16:14.758Z,17.00
2017-07-25T07:18:42.331Z,17.00
2017-07-25T07:21:09.900Z,17.00
2017-07-25T07:23:38.270Z,17.00
2017-07-25T07:26:05.843Z,17.00
2017-07-25T07:28:33.409Z,17.10
2017-07-25T07:31:01.136Z,17.20
2017-07-25T07:33:28.694Z,17.20
2017-07-25T07:35:56.256Z,17.20
2017-07-25T07:38:23.984Z,17.20
2017-07-25T07:40:51.536Z,17.30
2017-07-25T07:43:19.084Z,17.30
2017-07-25T07:45:46.772Z,17.30
2017-07-25T07:48:14.323Z,17.30
2017-07-25T07:50:41.871Z,17.40
2017-07-25T07:53:09.615Z,17.30
2017-07-25T07:55:37.182Z,17.30
2017-07-25T07:58:04.757Z,17.30
2017-07-25T08:00:32.386Z,17.40
2017-07-25T08:02:59.945Z,17.30
2017-07-25T08:05:28.301Z,17.40
2017-07-25T08:07:55.986Z,17.40
2017-07-25T08:10:24.371Z,17.50
2017-07-25T08:12:51.927Z,17.40
2017-07-25T08:15:19.659Z,17.50
2017-07-25T08:17:47.237Z,17.60
2017-07-25T08:20:15.555Z,17.60
2017-07-25T08:22:43.162Z,17.60
2017-07-25T08:25:10.747Z,17.70
2017-07-25T08:27:38.307Z,17.70
2017-07-25T08:30:05.931Z,17.80
2017-07-25T08:32:33.487Z,17.80
2017-07-25T08:35:01.052Z,17.80
2017-07-25T08:37:28.808Z,17.70
2017-07-25T08:39:56.407Z,17.70
2017-07-25T08:42:24.735Z,17.80
2017-07-25T08:44:52.362Z,17.80
2017-07-25T08:47:19.923Z,17.90
2017-07-25T08:49:47.514Z,18.00
2017-07-25T08:52:15.250Z,18.20
2017-07-25T08:54:42.842Z,18.30
2017-07-25T08:57:10.397Z,18.40
2017-07-25T08:59:38.162Z,18.40
2017-07-25T09:02:05.747Z,18.50
2017-07-25T09:04:33.316Z,18.70
2017-07-25T09:07:01.049Z,18.70
2017-07-25T09:09:28.616Z,18.80
2017-07-25T09:11:56.177Z,18.80
2017-07-25T09:14:23.921Z,18.90
2017-07-25T09:16:51.484Z,18.90
2017-07-25T09:19:19.043Z,18.90
2017-07-25T09:21:46.860Z,19.00
2017-07-25T09:24:14.434Z,19.10
2017-07-25T09:26:41.998Z,19.00
2017-07-25T09:29:09.708Z,19.00
2017-07-25T09:31:37.284Z,19.10
2017-07-25T09:34:04.848Z,19.20
2017-07-25T09:36:33.619Z,19.10
2017-07-25T09:39:01.193Z,19.10
2017-07-25T09:41:29.524Z,18.90
2017-07-25T09:43:57.356Z,19.00
2017-07-25T09:46:24.936Z,18.80
2017-07-25T09:48:52.504Z,18.70
2017-07-25T09:51:20.273Z,18.40
2017-07-25T09:53:47.844Z,18.10
2017-07-25T09:56:15.430Z,17.80
2017-07-25T09:58:43.403Z,17.60
2017-07-25T10:01:10.982Z,17.50
2017-07-25T10:03:38.553Z,17.60
2017-07-25T10:06:06.187Z,17.60
2017-07-25T10:08:34.512Z,17.70
2017-07-25T10:11:02.086Z,17.70
2017-07-25T10:13:29.734Z,17.80
2017-07-25T10:15:57.323Z,17.80
2017-07-25T10:18:24.898Z,17.80
2017-07-25T10:20:53.314Z,17.60
2017-07-25T10:23:20.892Z,17.60
2017-07-25T10:25:48.480Z,17.60
2017-07-25T10:28:16.097Z,17.70
2017-07-25T10:33:18.078Z,17.70
2017-07-25T10:35:45.647Z,17.60
2017-07-25T10:38:13.224Z,17.60
2017-07-25T10:40:40.823Z,17.50
2017-07-25T10:43:08.377Z,17.30
2017-07-25T10:45:35.976Z,17.10
2017-07-25T10:48:03.639Z,17.10
2017-07-25T10:50:31.200Z,17.20
2017-07-25T10:52:58.769Z,17.20
2017-07-25T10:55:26.384Z,17.40
2017-07-25T10:57:53.939Z,17.40
2017-07-25T11:00:21.550Z,17.30
2017-07-25T11:02:49.268Z,17.30
2017-07-25T11:05:17.594Z,17.40
2017-07-25T11:07:45.187Z,17.40
2017-07-25T11:10:12.800Z,17.30
2017-07-25T11:12:40.355Z,17.20
2017-07-25T11:15:08.031Z,17.20
2017-07-25T11:17:35.727Z,17.20
2017-07-25T11:20:03.272Z,17.20
2017-07-25T11:22:30.827Z,17.30
2017-07-25T11:24:58.407Z,17.30
2017-07-25T11:27:25.994Z,17.30
2017-07-25T11:29:54.301Z,17.20
2017-07-25T11:32:22.037Z,17.20
2017-07-25T11:34:49.631Z,17.30
2017-07-25T11:37:17.199Z,17.40
2017-07-25T11:39:44.808Z,17.50
2017-07-25T11:42:12.371Z,17.40
2017-07-25T11:44:40.707Z,17.40
2017-07-25T11:47:08.315Z,17.40
2017-07-25T11:49:35.864Z,17.30
2017-07-25T11:52:04.203Z,17.20
2017-07-25T11:54:31.843Z,17.20
2017-07-25T11:56:59.412Z,17.30
2017-07-25T11:59:27.011Z,17.30
2017-07-25T12:01:54.616Z,17.40
2017-07-25T12:04:22.194Z,17.40
2017-07-25T12:06:49.755Z,17.40
2017-07-25T12:09:17.905Z,17.40
2017-07-25T12:11:45.640Z,17.40
2017-07-25T12:14:13.273Z,17.40
2017-07-25T12:16:41.072Z,17.30
2017-07-25T12:19:08.641Z,17.30
2017-07-25T12:21:52.103Z,17.20
2017-07-25T12:24:19.663Z,17.20
2017-07-25T12:26:47.224Z,17.20
2017-07-25T12:29:14.944Z,17.30
2017-07-25T12:31:42.514Z,17.50
2017-07-25T12:34:10.078Z,17.50
2017-07-25T12:36:37.801Z,17.50
2017-07-25T12:39:06.124Z,17.40
2017-07-25T12:41:33.695Z,17.40
2017-07-25T12:44:01.378Z,17.30
2017-07-25T12:46:28.926Z,17.30
2017-07-25T12:48:56.475Z,17.30
2017-07-25T12:51:24.223Z,17.40
2017-07-25T12:53:51.781Z,17.40
2017-07-25T12:56:19.334Z,17.40
2017-07-25T12:58:47.081Z,17.50
2017-07-25T13:01:26.341Z,17.60
2017-07-25T13:03:54.086Z,17.50
2017-07-25T13:06:21.646Z,17.50
2017-07-25T13:08:49.215Z,17.50
2017-07-25T13:11:17.101Z,17.40
2017-07-25T13:13:44.660Z,17.30
2017-07-25T13:16:12.221Z,17.20
2017-07-25T13:18:39.956Z,17.10
2017-07-25T13:21:07.535Z,17.20
2017-07-25T13:23:35.095Z,17.20
2017-07-25T13:26:02.835Z,17.20
2017-07-25T13:28:30.470Z,17.20
2017-07-25T13:30:58.804Z,17.40
2017-07-25T13:33:26.536Z,17.40
2017-07-25T13:35:54.091Z,17.30
2017-07-25T13:38:22.429Z,17.40
2017-07-25T13:40:50.164Z,17.40
2017-07-25T13:43:17.729Z,17.40
2017-07-25T13:45:45.271Z,17.40
2017-07-25T13:48:13.191Z,17.20
2017-07-25T13:50:40.796Z,17.20
2017-07-25T13:53:08.344Z,17.20
2017-07-25T13:55:36.208Z,17.10
2017-07-25T13:58:03.876Z,17.20
2017-07-25T14:00:31.438Z,17.20
2017-07-25T14:02:59.025Z,17.20
2017-07-25T14:05:26.633Z,17.30
2017-07-25T14:07:54.369Z,17.30
2017-07-25T14:10:22.055Z,17.20
2017-07-25T14:12:50.371Z,17.30
2017-07-25T14:15:17.943Z,17.30
2017-07-25T14:17:45.613Z,17.20
2017-07-25T14:20:13.185Z,17.20
2017-07-25T14:22:40.734Z,17.30
2017-07-25T14:25:08.403Z,17.30
2017-07-25T14:27:35.955Z,17.20
2017-07-25T14:30:03.582Z,17.20
2017-07-25T14:32:31.308Z,17.10
2017-07-25T14:35:00.574Z,17.10
2017-07-25T14:37:28.153Z,17.00
2017-07-25T14:39:55.724Z,16.90
2017-07-25T14:42:23.271Z,16.90
2017-07-25T14:44:50.865Z,16.90
2017-07-25T14:47:18.763Z,16.90
2017-07-25T14:49:46.396Z,16.90
2017-07-25T14:52:13.975Z,16.90
2017-07-25T14:54:41.560Z,16.90
2017-07-25T14:57:09.123Z,16.90
2017-07-25T14:59:36.683Z,17.00
2017-07-25T15:02:04.423Z,17.10
2017-07-25T15:04:31.978Z,17.10
2017-07-25T15:06:59.526Z,17.00
2017-07-25T15:09:27.444Z,16.90
2017-07-25T15:11:55.029Z,16.90
2017-07-25T15:14:23.338Z,17.00
2017-07-25T15:16:51.064Z,17.00
2017-07-25T15:19:18.622Z,17.00
2017-07-25T15:21:46.171Z,17.00
2017-07-25T15:24:13.755Z,16.90
2017-07-25T15:26:41.315Z,16.90
2017-07-25T15:29:09.639Z,17.00
2017-07-25T15:31:37.250Z,17.00
2017-07-25T15:34:04.853Z,17.10
2017-07-25T15:36:32.394Z,17.10
2017-07-25T15:39:00.066Z,17.10
2017-07-25T15:41:27.619Z,17.20
2017-07-25T15:43:55.171Z,17.20
2017-07-25T15:46:22.869Z,17.10
2017-07-25T15:48:50.415Z,17.10
2017-07-25T15:51:17.978Z,17.10
2017-07-25T15:53:45.571Z,17.10
2017-07-25T15:56:13.128Z,17.10
2017-07-25T15:58:40.693Z,17.10
2017-07-25T16:01:08.644Z,17.10
2017-07-25T16:03:36.195Z,17.10
2017-07-25T16:06:03.757Z,17.10
2017-07-25T16:08:31.767Z,17.10
2017-07-25T16:11:00.085Z,17.00
2017-07-25T16:13:27.769Z,17.00
2017-07-25T16:15:55.462Z,17.00
2017-07-25T16:18:23.783Z,16.90
2017-07-25T16:20:51.330Z,16.90
2017-07-25T16:23:18.991Z,16.90
2017-07-25T16:25:46.544Z,16.80
2017-07-25T16:28:14.103Z,16.90
2017-07-25T16:30:42.359Z,16.80
2017-07-25T16:33:10.699Z,16.80
2017-07-25T16:35:38.346Z,16.80
2017-07-25T16:38:06.090Z,16.80
2017-07-25T16:40:33.650Z,16.80
2017-07-25T16:43:01.218Z,16.80
2017-07-25T16:45:28.799Z,16.70
2017-07-25T16:47:56.372Z,16.70
2017-07-25T16:50:23.922Z,16.70
2017-07-25T16:52:51.612Z,16.60
2017-07-25T16:55:19.935Z,16.60
2017-07-25T16:57:47.496Z,16.60
2017-07-25T17:00:15.239Z,16.60
2017-07-25T17:02:42.800Z,16.60
2017-07-25T17:05:10.359Z,16.60
2017-07-25T17:07:38.005Z,16.40
2017-07-25T17:10:05.559Z,16.40
2017-07-25T17:12:33.112Z,16.20
2017-07-25T17:15:00.723Z,16.10
2017-07-25T17:17:28.273Z,16.10
2017-07-25T17:19:55.815Z,16.00
2017-07-25T17:22:23.491Z,15.90
2017-07-25T17:24:51.041Z,15.90
2017-07-25T17:27:18.595Z,15.90
2017-07-25T17:29:46.399Z,15.90
2017-07-25T17:32:13.962Z,15.80
2017-07-25T17:34:41.519Z,15.80
2017-07-25T17:37:09.106Z,15.70
2017-07-25T17:39:37.449Z,15.60
2017-07-25T17:42:04.990Z,15.60
2017-07-25T17:44:32.898Z,15.60
2017-07-25T17:47:00.447Z,15.60
2017-07-25T17:49:27.987Z,15.60
2017-07-25T17:51:56.031Z,15.60
2017-07-25T17:54:23.599Z,15.60
2017-07-25T17:56:51.158Z,15.50
2017-07-25T17:59:18.899Z,15.50
2017-07-25T18:01:46.460Z,15.50
2017-07-25T18:04:14.014Z,15.50
2017-07-25T18:06:41.947Z,15.50
2017-07-25T18:09:09.594Z,15.40
2017-07-25T18:11:37.200Z,15.40
2017-07-25T18:14:05.655Z,15.30
2017-07-25T18:16:33.209Z,15.30
2017-07-25T18:19:00.817Z,15.30
2017-07-25T18:21:28.698Z,15.30
2017-07-25T18:23:56.247Z,15.20
2017-07-25T18:26:23.788Z,15.20
2017-07-25T18:28:51.500Z,15.20
2017-07-25T18:31:19.061Z,15.20
2017-07-25T18:33:46.622Z,15.20
2017-07-25T18:36:14.308Z,15.20
2017-07-25T18:38:41.912Z,15.10
2017-07-25T18:41:09.485Z,15.10
2017-07-25T18:43:37.099Z,15.10
2017-07-25T18:46:05.430Z,15.00
2017-07-25T18:48:32.975Z,15.00
2017-07-25T18:51:00.572Z,15.00
2017-07-25T18:53:28.160Z,15.10
2017-07-25T18:55:55.709Z,15.00
2017-07-25T18:58:24.210Z,15.00
2017-07-25T19:00:51.783Z,15.00
2017-07-25T19:03:19.352Z,15.10
2017-07-25T19:05:47.092Z,15.00
2017-07-25T19:08:14.698Z,15.00
2017-07-25T19:10:42.300Z,15.00
2017-07-25T19:13:09.936Z,15.00
2017-07-25T19:15:37.517Z,15.00
2017-07-25T19:18:05.093Z,14.90
2017-07-25T19:20:32.772Z,15.00
2017-07-25T19:23:00.346Z,14.90
2017-07-25T19:25:27.891Z,14.90
2017-07-25T19:27:55.602Z,14.80
2017-07-25T19:30:23.159Z,14.90
2017-07-25T19:32:50.721Z,14.90
2017-07-25T19:35:18.396Z,14.80
2017-07-25T19:37:46.716Z,14.70
2017-07-25T19:40:14.265Z,14.70
2017-07-25T19:42:41.991Z,14.70
2017-07-25T19:45:10.311Z,14.60
2017-07-25T19:47:37.868Z,14.60
2017-07-25T19:50:05.460Z,14.50
2017-07-25T19:52:33.027Z,14.50
2017-07-25T19:55:00.584Z,14.50
2017-07-25T19:57:28.352Z,14.50
2017-07-25T19:59:56.672Z,14.50
2017-07-25T20:02:24.247Z,14.50
2017-07-25T20:04:52.270Z,14.50
2017-07-25T20:07:19.831Z,14.50
2017-07-25T20:09:48.151Z,14.40
2017-07-25T20:12:15.820Z,14.40
2017-07-25T20:14:43.427Z,14.40
2017-07-25T20:17:10.990Z,14.40
2017-07-25T20:19:38.729Z,14.40
2017-07-25T20:22:06.297Z,14.40
2017-07-25T20:24:35.448Z,14.40
2017-07-25T20:27:03.153Z,14.40
2017-07-25T20:29:30.764Z,14.30
2017-07-25T20:31:58.327Z,14.40
2017-07-25T20:34:25.967Z,14.30
2017-07-25T20:36:53.533Z,14.30
2017-07-25T20:39:22.643Z,14.30
2017-07-25T20:41:50.649Z,14.30
2017-07-25T20:44:18.220Z,14.40
2017-07-25T20:46:45.773Z,14.40
2017-07-25T20:49:13.658Z,14.40
2017-07-25T20:51:41.218Z,14.40
2017-07-25T20:54:09.658Z,14.40
2017-07-25T20:56:38.173Z,14.30
2017-07-25T20:59:05.750Z,14.30
2017-07-25T21:01:34.086Z,14.20
2017-07-25T21:04:01.759Z,14.20
2017-07-25T21:06:29.373Z,14.20
2017-07-25T21:08:56.967Z,14.20
2017-07-25T21:11:24.865Z,14.20
2017-07-25T21:13:52.417Z,14.20
2017-07-25T21:16:19.955Z,14.20
2017-07-25T21:18:47.793Z,14.10
2017-07-25T21:21:15.377Z,14.10
2017-07-25T21:23:42.954Z,14.10
2017-07-25T21:26:10.551Z,14.00
2017-07-25T21:28:38.242Z,13.90
2017-07-25T21:31:05.829Z,13.90
2017-07-25T21:33:33.598Z,13.90
2017-07-25T21:36:01.144Z,13.90
2017-07-25T21:38:28.688Z,13.90
2017-07-25T21:40:56.477Z,13.90
2017-07-25T21:43:24.027Z,13.90
2017-07-25T21:45:51.567Z,13.90
2017-07-25T21:48:19.472Z,13.90
2017-07-25T21:50:47.019Z,14.00
2017-07-25T21:53:14.578Z,13.90
2017-07-25T21:55:42.178Z,13.90
2017-07-25T21:58:09.740Z,13.90
2017-07-25T22:00:38.049Z,14.00
2017-07-25T22:03:17.932Z,14.00
2017-07-25T22:05:45.477Z,13.90
2017-07-25T22:08:13.021Z,13.90
2017-07-25T22:10:40.805Z,14.00
2017-07-25T22:13:08.366Z,13.90
2017-07-25T22:15:35.919Z,13.90
2017-07-25T22:18:03.683Z,13.80
2017-07-25T22:20:31.223Z,13.90
2017-07-25T22:22:58.776Z,13.90
2017-07-25T22:25:26.367Z,13.80
2017-07-25T22:27:54.681Z,13.90
2017-07-25T22:30:22.232Z,13.80
2017-07-25T22:32:50.176Z,13.80
2017-07-25T22:35:17.718Z,13.70
2017-07-25T22:37:45.267Z,13.70
2017-07-25T22:40:13.160Z,13.70
2017-07-25T22:42:40.715Z,13.70
2017-07-25T22:45:08.253Z,13.80
2017-07-25T22:47:35.968Z,13.80
2017-07-25T22:50:04.283Z,13.80
2017-07-25T22:52:31.834Z,13.70
2017-07-25T22:54:59.436Z,13.80
2017-07-25T22:57:26.980Z,13.80
2017-07-25T22:59:54.512Z,13.80
2017-07-25T23:02:22.111Z,13.80
2017-07-25T23:04:49.668Z,13.80
2017-07-25T23:07:17.231Z,13.70
2017-07-25T23:09:44.857Z,13.70
2017-07-25T23:12:12.399Z,13.70
2017-07-25T23:14:39.962Z,13.60
2017-07-25T23:17:07.562Z,13.60
2017-07-25T23:19:35.102Z,13.60
2017-07-25T23:22:02.649Z,13.60
2017-07-25T23:24:30.352Z,13.60
2017-07-25T23:26:57.926Z,13.60
2017-07-25T23:29:25.478Z,13.60
2017-07-25T23:31:53.076Z,13.60
2017-07-25T23:34:20.637Z,13.50
2017-07-25T23:36:48.182Z,13.60
2017-07-25T23:39:16.728Z,13.60
2017-07-25T23:41:44.274Z,13.60
2017-07-25T23:44:11.832Z,13.60
2017-07-25T23:46:39.501Z,13.60
2017-07-25T23:49:07.046Z,13.60
2017-07-25T23:51:34.582Z,13.60
2017-07-25T23:54:02.394Z,13.70
2017-07-25T23:56:29.946Z,13.70
2017-07-25T23:58:57.495Z,13.70
